»·PEaware :: N28KK KAVX-KSAN

N28KK :: KAVX-KSAN

FLIGHT INFORMATION

Flight Status: Arrived
Operator: Privately registered:
United States
More flights under this callsign
Pilot: Jayson W. (9677)
Aircraft: Unknown
(M20K)
More flights by this aircraft type
Origin: KAVX Catalina
United States
Destination: KSAN San Diego Intl-Lindbergh
United States
More flights between these airports :: More routes between these airports
Route: SXC V208 OCN V23 MZB
File this flight plan on PilotEdge
Remarks: i 8 rating
Altitude:
(Current/Filed)
7,000ft
Speed:
(Current/Filed)
160kts
Departed: 12-Dec-17 10:06 PM
Arrived: 12-Dec-17 10:50 PM
Distance/Time
Traveled:
74nm/0:44
Distance/Time
To Go:
Arrived

Flight Plot

Page will automatically refresh every two minutes.


Map Options




Map Legend


Flown Route
Filed Route
Departure Airport
Arrival Airport
Navaid (VOR, NDB)
Fix

Horizontal Profiles

Position Reports

Time Latitude Longitude Heading Altitude Ground
Speed
12-Dec-17 21:53 34.215762 -118.488312 8 805ft 0kts
12-Dec-17 21:54 33.402737 -118.416179 45 1604ft 0kts
12-Dec-17 21:55 33.402737 -118.416179 45 1604ft 0kts
12-Dec-17 21:56 33.402737 -118.416179 45 1604ft 0kts
12-Dec-17 21:57 33.402737 -118.416179 45 1604ft 0kts
12-Dec-17 21:58 33.402737 -118.416179 45 1604ft 0kts
12-Dec-17 21:59 33.402737 -118.416179 45 1604ft 0kts
12-Dec-17 22:00 33.402737 -118.416179 45 1604ft 0kts
12-Dec-17 22:01 33.402737 -118.416179 45 1604ft 0kts
12-Dec-17 22:02 33.402737 -118.416179 45 1604ft 0kts
12-Dec-17 22:03 33.402737 -118.416179 45 1604ft 0kts
12-Dec-17 22:04 33.402737 -118.416179 45 1604ft 0kts
12-Dec-17 22:05 33.402737 -118.416179 45 1604ft 0kts
12-Dec-17 22:06 33.402737 -118.416179 45 1604ft 0kts
12-Dec-17 22:07 33.402737 -118.416179 45 1604ft 0kts
12-Dec-17 22:08 33.402737 -118.416179 45 1604ft 0kts
12-Dec-17 22:09 33.403063 -118.417903 227 1604ft 31kts
12-Dec-17 22:10 33.402334 -118.419724 16 1604ft 16kts
12-Dec-17 22:11 33.414610 -118.395737 64 2553ft 102kts
12-Dec-17 22:12 33.406478 -118.363322 125 3799ft 118kts
12-Dec-17 22:14 33.396883 -118.327742 106 5014ft 130kts
12-Dec-17 22:15 33.388224 -118.277528 102 5061ft 172kts
12-Dec-17 22:16 33.378583 -118.221256 99 4988ft 175kts
12-Dec-17 22:17 33.369519 -118.163905 101 4990ft 176kts
12-Dec-17 22:18 33.359945 -118.107390 101 4989ft 176kts
12-Dec-17 22:19 33.350201 -118.050352 101 5068ft 175kts
12-Dec-17 22:20 33.340415 -117.993052 101 5069ft 176kts
12-Dec-17 22:21 33.330569 -117.935666 101 5067ft 176kts
12-Dec-17 22:22 33.320673 -117.878320 101 5069ft 176kts
12-Dec-17 22:23 33.310835 -117.821151 101 5070ft 176kts
12-Dec-17 22:24 33.301896 -117.770246 101 5067ft 176kts
12-Dec-17 22:25 33.292942 -117.718358 101 5072ft 176kts
12-Dec-17 22:26 33.282911 -117.660790 100 5069ft 176kts
12-Dec-17 22:27 33.272889 -117.603365 101 5069ft 176kts
12-Dec-17 22:28 33.262895 -117.546051 101 5071ft 176kts
12-Dec-17 22:29 33.252850 -117.488903 101 5067ft 176kts
12-Dec-17 22:30 33.242415 -117.431819 112 5067ft 177kts
12-Dec-17 22:31 33.201054 -117.404353 154 5068ft 176kts
12-Dec-17 22:32 33.155483 -117.382740 159 5068ft 176kts
12-Dec-17 22:33 33.109402 -117.363112 160 5068ft 176kts
12-Dec-17 22:34 33.063226 -117.343653 160 5067ft 176kts
12-Dec-17 22:35 33.017037 -117.324275 160 5070ft 176kts
12-Dec-17 22:36 32.971630 -117.303107 133 5061ft 177kts
12-Dec-17 22:37 32.950793 -117.250471 113 5068ft 176kts
12-Dec-17 22:38 32.930930 -117.197113 113 5068ft 176kts
12-Dec-17 22:39 32.911115 -117.143795 113 5070ft 176kts
12-Dec-17 22:40 32.891199 -117.090260 113 5069ft 176kts
12-Dec-17 22:41 32.871456 -117.037177 113 5071ft 176kts
12-Dec-17 22:42 32.851573 -116.983712 113 5019ft 179kts
12-Dec-17 22:43 32.831591 -116.929949 113 4999ft 176kts
12-Dec-17 22:44 32.811745 -116.876584 113 4996ft 176kts
12-Dec-17 22:45 32.773662 -116.849876 182 4402ft 192kts
12-Dec-17 22:46 32.721987 -116.853639 186 3998ft 177kts
12-Dec-17 22:47 32.678134 -116.876239 204 4001ft 171kts
12-Dec-17 22:48 32.658494 -116.914882 311 3993ft 170kts
12-Dec-17 22:49 32.684267 -116.958099 293 3657ft 139kts
12-Dec-17 22:50 32.692271 -116.994840 286 3305ft 128kts
12-Dec-17 22:51 32.701242 -117.033010 275 2869ft 126kts
12-Dec-17 22:52 32.707439 -117.073379 283 2213ft 130kts
12-Dec-17 22:53 32.715955 -117.112734 287 1378ft 123kts
12-Dec-17 22:54 32.724650 -117.147375 281 514ft 116kts
12-Dec-17 22:55 32.731884 -117.182860 286 52ft 88kts
12-Dec-17 22:56 32.734293 -117.194596 249 20ft 0kts
12-Dec-17 22:57 32.733872 -117.194743 144 20ft 4kts
12-Dec-17 22:58 32.733328 -117.192648 99 20ft 8kts
12-Dec-17 22:59 32.734752 -117.190343 82 20ft 10kts
12-Dec-17 23:00 32.734170 -117.187465 94 20ft 9kts
12-Dec-17 23:01 32.733389 -117.184219 106 20ft 10kts
12-Dec-17 23:02 32.732549 -117.180649 107 20ft 11kts
12-Dec-17 23:03 32.732228 -117.177642 335 20ft 8kts
12-Dec-17 23:04 32.732813 -117.178069 324 20ft 0kts
12-Dec-17 23:05 32.732813 -117.178069 324 20ft 0kts
12-Dec-17 23:06 32.732813 -117.178069 324 20ft 0kts
12-Dec-17 23:07 32.732813 -117.178069 324 20ft 0kts
12-Dec-17 23:08 32.732813 -117.178069 324 20ft 0kts
12-Dec-17 23:09 32.732813 -117.178069 324 20ft 0kts
12-Dec-17 23:10 32.732813 -117.178069 324 20ft 0kts

Navigation Log

Ident Type
1. KAVX Airport
2. SXC Navaid
3. AVOLS Fix
4. PACIF Fix
5. HUBRD Fix
6. OCN Navaid
7. HURSI Fix
8. CARIF Fix
9. MZB Navaid
10. KSAN Airport